Time;durP1;ratioP1;P1;durP2;ratioP2;P2;SDS_P1;SDS_P2;PMS_P1;PMS_P2;Temp;Humidity;BMP_temperature;BMP_pressure;BME280_temperature;BME280_humidity;BME280_pressure;Samples;Min_cycle;Max_cycle;Signal;HPM_P1;HPM_P2
2021/07/14 00:04:36;;;;;;;3.43;3.23;;;17.30;99.90;;;;;;10376146;28;20202;-79
2021/07/14 00:09:38;;;;;;;2.97;2.77;;;17.30;99.90;;;;;;10376651;28;20226;-79
2021/07/14 00:25:20;;;;;;;3.80;3.20;;;17.50;99.90;;;;;;10359957;28;20198;-79
2021/07/14 00:30:27;;;;;;;3.20;3.00;;;17.50;99.90;;;;;;10376731;28;20219;-78
2021/07/14 00:35:30;;;;;;;4.40;2.90;;;17.50;99.90;;;;;;10382449;28;20284;-78
2021/07/14 00:40:32;;;;;;;5.23;3.60;;;17.50;99.90;;;;;;10397240;28;20634;-78
2021/07/14 00:45:35;;;;;;;4.87;3.60;;;17.50;99.90;;;;;;10404750;28;20202;-79
2021/07/14 00:50:39;;;;;;;3.17;2.90;;;17.40;99.90;;;;;;10421444;28;20229;-78
2021/07/14 00:55:41;;;;;;;3.70;3.40;;;17.40;99.90;;;;;;10402182;28;20309;-79
2021/07/14 01:00:43;;;;;;;4.30;3.13;;;17.40;99.90;;;;;;10399940;28;20257;-78
2021/07/14 01:05:50;;;;;;;6.70;3.60;;;17.40;99.90;;;;;;10384619;28;20239;-78
2021/07/14 01:10:59;;;;;;;3.83;3.50;;;17.30;99.90;;;;;;10403739;28;20300;-78
2021/07/14 01:16:04;;;;;;;3.77;3.50;;;17.30;99.90;;;;;;10401131;28;20232;-80
2021/07/14 01:21:15;;;;;;;3.47;3.17;;;17.20;99.90;;;;;;10420320;28;20302;-80
2021/07/14 01:26:34;;;;;;;3.70;3.50;;;17.20;99.90;;;;;;10402514;28;20244;-78
2021/07/14 01:31:40;;;;;;;4.20;3.20;;;17.10;99.90;;;;;;10403661;28;20516;-78
2021/07/14 01:36:44;;;;;;;3.53;3.23;;;17.10;99.90;;;;;;10402668;28;20229;-79
2021/07/14 01:41:49;;;;;;;3.80;3.53;;;17.10;99.90;;;;;;10380252;28;20222;-79
2021/07/14 01:46:57;;;;;;;6.37;3.33;;;17.10;99.90;;;;;;10377792;28;20198;-78
2021/07/14 01:52:02;;;;;;;3.93;3.50;;;17.20;99.90;;;;;;10376764;28;20219;-79
2021/07/14 01:57:06;;;;;;;3.63;3.43;;;17.20;99.90;;;;;;10369943;28;20570;-78
2021/07/14 02:02:11;;;;;;;3.87;3.60;;;17.30;99.90;;;;;;10377212;28;20253;-78
2021/07/14 02:07:15;;;;;;;7.50;3.33;;;17.30;99.90;;;;;;10370752;28;20211;-79
2021/07/14 02:12:20;;;;;;;3.80;3.60;;;17.30;99.90;;;;;;10404879;28;20229;-78
2021/07/14 02:17:26;;;;;;;4.03;3.73;;;17.40;99.90;;;;;;10416547;28;20232;-80
2021/07/14 02:22:29;;;;;;;4.00;3.80;;;17.50;99.90;;;;;;10419165;28;20217;-78
2021/07/14 02:27:31;;;;;;;4.70;3.70;;;17.50;99.90;;;;;;10417744;28;20193;-78
2021/07/14 02:32:35;;;;;;;3.80;3.53;;;17.50;99.90;;;;;;10416198;28;20237;-80
2021/07/14 02:37:46;;;;;;;3.53;3.23;;;17.50;99.90;;;;;;10397894;28;20241;-79
2021/07/14 02:42:48;;;;;;;3.70;3.33;;;17.50;99.90;;;;;;10365152;28;20595;-78
2021/07/14 02:47:53;;;;;;;3.73;3.43;;;17.50;99.90;;;;;;10373457;28;20616;-79
2021/07/14 02:52:58;;;;;;;3.80;3.50;;;17.50;99.90;;;;;;10360783;28;20566;-79
2021/07/14 02:58:02;;;;;;;4.30;3.93;;;17.50;99.90;;;;;;10369391;28;20698;-79
2021/07/14 03:03:07;;;;;;;8.80;4.00;;;17.50;99.90;;;;;;10371120;28;20273;-79
2021/07/14 03:08:14;;;;;;;3.90;3.60;;;17.50;99.90;;;;;;10371857;28;20219;-79
2021/07/14 03:13:16;;;;;;;3.50;3.20;;;17.50;99.90;;;;;;10376911;28;20213;-80
2021/07/14 03:18:22;;;;;;;4.00;3.50;;;17.50;99.90;;;;;;10395837;28;20634;-80
2021/07/14 03:23:25;;;;;;;4.33;4.03;;;17.50;99.90;;;;;;10380782;28;20205;-80
2021/07/14 03:28:31;;;;;;;3.90;3.70;;;17.50;99.90;;;;;;10383844;28;20213;-80
2021/07/14 03:33:35;;;;;;;4.73;4.30;;;17.50;99.90;;;;;;10401407;28;20217;-80
2021/07/14 03:38:38;;;;;;;4.33;3.90;;;17.50;99.90;;;;;;10411626;28;20754;-80
2021/07/14 03:43:40;;;;;;;4.20;3.90;;;17.60;99.90;;;;;;10398304;28;20209;-80
2021/07/14 03:48:45;;;;;;;4.37;4.00;;;17.60;99.90;;;;;;10381047;28;20317;-80
2021/07/14 03:53:47;;;;;;;4.87;4.37;;;17.60;99.90;;;;;;10399097;28;20208;-80
2021/07/14 03:58:50;;;;;;;4.00;3.70;;;17.70;99.90;;;;;;10355696;28;20280;-80
2021/07/14 04:03:55;;;;;;;8.43;3.50;;;17.70;99.90;;;;;;10373502;28;20245;-80
2021/07/14 04:09:20;;;;;;;4.10;3.30;;;17.70;99.90;;;;;;10368223;28;20223;-80
2021/07/14 04:14:23;;;;;;;4.10;3.70;;;17.70;99.90;;;;;;10398270;28;20205;-80
2021/07/14 04:19:27;;;;;;;4.57;3.87;;;17.70;99.90;;;;;;10379058;28;20250;-79
2021/07/14 04:24:29;;;;;;;4.50;4.17;;;17.70;99.90;;;;;;10413808;28;20198;-78
2021/07/14 04:29:31;;;;;;;3.80;3.60;;;17.80;99.90;;;;;;10413486;28;20241;-79
2021/07/14 04:34:34;;;;;;;4.43;4.07;;;17.80;99.90;;;;;;10373884;28;20725;-80
2021/07/14 04:39:36;;;;;;;3.93;3.73;;;17.80;99.90;;;;;;10348192;28;20223;-79
2021/07/14 04:44:48;;;;;;;4.83;4.37;;;17.80;99.90;;;;;;10376447;28;20290;-82
2021/07/14 04:49:52;;;;;;;4.37;3.93;;;17.80;99.90;;;;;;10357756;28;20214;-80
2021/07/14 04:54:55;;;;;;;3.73;3.53;;;17.80;99.90;;;;;;10365562;28;20242;-80
2021/07/14 04:59:57;;;;;;;3.83;3.53;;;17.90;99.90;;;;;;10377103;28;20226;-81
2021/07/14 05:05:00;;;;;;;5.23;3.67;;;17.90;99.90;;;;;;10362195;28;20191;-78
2021/07/14 05:10:03;;;;;;;3.73;3.43;;;17.90;99.90;;;;;;10363851;28;20690;-78
2021/07/14 05:15:06;;;;;;;4.57;4.00;;;17.90;99.90;;;;;;10342174;28;20298;-79
2021/07/14 05:20:10;;;;;;;3.90;3.60;;;17.90;99.90;;;;;;10342377;28;20270;-81
2021/07/14 05:25:15;;;;;;;3.50;3.20;;;17.90;99.90;;;;;;10337037;28;20294;-80
2021/07/14 05:30:18;;;;;;;3.83;3.60;;;17.90;99.90;;;;;;10337773;28;20297;-78
2021/07/14 05:35:22;;;;;;;8.00;3.60;;;18.00;99.90;;;;;;10317549;28;20339;-78
2021/07/14 05:40:24;;;;;;;7.13;3.67;;;18.00;99.90;;;;;;10348803;28;20226;-77
2021/07/14 05:45:26;;;;;;;3.67;3.27;;;17.90;99.90;;;;;;10377619;28;20587;-80
2021/07/14 05:50:30;;;;;;;4.57;3.87;;;18.00;99.90;;;;;;10375361;28;20218;-79
2021/07/14 05:55:32;;;;;;;4.27;3.97;;;17.90;99.90;;;;;;10381210;28;20281;-78
2021/07/14 06:00:34;;;;;;;6.80;4.07;;;17.90;99.90;;;;;;10393583;22;20270;-81
2021/07/14 06:05:38;;;;;;;4.47;4.07;;;17.90;99.90;;;;;;10357379;28;20207;-81
2021/07/14 06:10:40;;;;;;;4.60;4.20;;;18.00;99.90;;;;;;10391466;28;20256;-81
2021/07/14 06:15:42;;;;;;;4.97;3.63;;;18.10;99.90;;;;;;10397359;28;20216;-80
2021/07/14 06:20:46;;;;;;;3.77;3.40;;;18.20;99.90;;;;;;10386479;28;20223;-80
2021/07/14 06:25:48;;;;;;;3.90;3.53;;;18.20;99.90;;;;;;10373440;28;20629;-79
2021/07/14 06:30:50;;;;;;;6.00;3.70;;;18.40;99.90;;;;;;10374408;28;20293;-79
2021/07/14 06:35:54;;;;;;;4.33;4.00;;;18.40;99.90;;;;;;10340614;28;20218;-80
2021/07/14 06:40:57;;;;;;;5.10;3.90;;;18.50;99.90;;;;;;10358640;28;20222;-81
2021/07/14 06:45:59;;;;;;;4.03;3.73;;;18.50;99.90;;;;;;10380915;28;20201;-80
2021/07/14 08:33:06;;;;;;;5.00;3.30;;;18.90;99.90;;;;;;11533579;22;20797;-82
2021/07/14 08:38:08;;;;;;;4.00;3.67;;;18.90;99.90;;;;;;10378236;28;20222;-81
2021/07/14 08:43:11;;;;;;;5.53;3.27;;;19.00;99.90;;;;;;10357479;28;20213;-80
2021/07/14 08:48:16;;;;;;;4.80;3.83;;;19.00;99.90;;;;;;10381875;28;20198;-80
2021/07/14 08:53:20;;;;;;;3.40;3.10;;;19.20;99.90;;;;;;10359507;28;20202;-80
2021/07/14 08:58:24;;;;;;;3.80;3.50;;;19.20;99.90;;;;;;10358449;28;20317;-80
2021/07/14 09:03:29;;;;;;;4.30;3.43;;;19.30;99.90;;;;;;10375548;28;20197;-82
2021/07/14 09:08:31;;;;;;;4.17;3.80;;;19.40;99.90;;;;;;10358262;28;20218;-81
2021/07/14 09:13:35;;;;;;;4.13;3.83;;;19.50;99.90;;;;;;10338333;28;20214;-83
2021/07/14 10:29:31;;;;;;;3.83;3.37;;;22.00;99.90;;;;;;10377061;28;20313;-82
2021/07/14 10:34:33;;;;;;;2.90;2.70;;;22.30;99.90;;;;;;10344313;28;20300;-81
2021/07/14 10:39:37;;;;;;;2.40;2.30;;;22.90;99.90;;;;;;10361675;28;20237;-81
2021/07/14 10:44:41;;;;;;;2.80;2.70;;;23.30;99.90;;;;;;10378568;28;20582;-83
2021/07/14 10:49:43;;;;;;;3.20;3.00;;;23.60;99.90;;;;;;10381857;28;20210;-81
2021/07/14 10:54:46;;;;;;;2.80;2.60;;;23.80;99.90;;;;;;10344041;28;20291;-82
2021/07/14 10:59:51;;;;;;;3.17;2.67;;;23.90;99.90;;;;;;10340434;28;20237;-81
2021/07/14 11:04:54;;;;;;;2.40;2.30;;;24.00;99.90;;;;;;10374193;28;20206;-80
2021/07/14 11:09:56;;;;;;;4.90;2.73;;;23.90;99.90;;;;;;10341138;28;20231;-81
2021/07/14 11:15:01;;;;;;;2.30;2.20;;;23.90;99.90;;;;;;10372216;28;20202;-80
2021/07/14 11:20:09;;;;;;;3.57;2.60;;;24.00;99.90;;;;;;10374138;28;20234;-82
2021/07/14 11:25:22;;;;;;;2.30;2.20;;;24.10;99.90;;;;;;10358044;28;20199;-80
2021/07/14 11:30:38;;;;;;;2.60;1.90;;;24.20;99.90;;;;;;10396709;28;20210;-81
2021/07/14 11:35:49;;;;;;;2.40;2.13;;;24.30;99.90;;;;;;10349126;28;20240;-79
2021/07/14 11:51:24;;;;;;;1.90;1.80;;;24.20;99.90;;;;;;10329262;28;20227;-81
2021/07/14 11:56:39;;;;;;;2.03;1.93;;;24.20;99.40;;;;;;10314888;28;20310;-81
2021/07/14 12:01:51;;;;;;;2.07;1.97;;;24.20;99.90;;;;;;10332155;28;20317;-81
2021/07/14 12:07:01;;;;;;;2.17;2.07;;;24.30;99.90;;;;;;10312547;28;20338;-80
2021/07/14 12:12:06;;;;;;;2.40;2.30;;;24.20;98.70;;;;;;10319814;28;20227;-79
2021/07/14 12:17:11;;;;;;;2.20;2.10;;;24.10;98.30;;;;;;10301469;28;20227;-81
2021/07/14 12:22:17;;;;;;;2.87;1.90;;;24.00;98.20;;;;;;10320420;28;20234;-82
2021/07/14 12:27:23;;;;;;;2.83;1.93;;;23.90;98.30;;;;;;10320244;28;20298;-81
2021/07/14 12:32:38;;;;;;;2.07;1.97;;;23.90;99.90;;;;;;10381640;23;20324;-82
2021/07/14 12:38:06;;;;;;;2.17;2.07;;;23.80;99.70;;;;;;10317870;28;20219;-81
2021/07/14 12:43:18;;;;;;;1.77;1.67;;;23.80;97.20;;;;;;10286451;28;20277;-82
2021/07/14 12:55:00;;;;;;;2.10;2.00;;;23.70;99.70;;;;;;10251794;28;20200;-82
2021/07/14 13:00:20;;;;;;;2.00;1.90;;;23.80;99.60;;;;;;10272022;28;20668;-80
2021/07/14 13:05:30;;;;;;;1.83;1.50;;;23.90;99.90;;;;;;10293850;28;20271;-81
2021/07/14 13:10:42;;;;;;;2.27;2.17;;;24.00;99.80;;;;;;10311997;28;20700;-80
2021/07/14 13:15:57;;;;;;;2.73;2.53;;;24.00;99.90;;;;;;10312244;28;20243;-81
2021/07/14 13:21:39;;;;;;;1.93;1.83;;;24.00;99.90;;;;;;10306484;28;20226;-82
2021/07/14 13:26:43;;;;;;;1.67;1.57;;;24.10;99.90;;;;;;10317007;28;20274;-80
2021/07/14 13:31:52;;;;;;;1.80;1.70;;;24.10;99.90;;;;;;10294759;28;20281;-80
2021/07/14 13:37:35;;;;;;;2.00;1.73;;;24.10;99.90;;;;;;10303746;28;20211;-81
2021/07/14 13:42:52;;;;;;;2.60;2.40;;;24.10;99.40;;;;;;10313668;28;20235;-81
2021/07/14 13:48:06;;;;;;;2.77;2.07;;;24.00;99.90;;;;;;10312171;28;20195;-81
2021/07/14 13:53:15;;;;;;;2.27;2.07;;;23.80;97.20;;;;;;10304531;28;20191;-80
2021/07/14 13:58:24;;;;;;;1.93;1.80;;;23.60;99.90;;;;;;10315761;28;20243;-80
2021/07/14 14:03:26;;;;;;;1.73;1.60;;;23.50;99.90;;;;;;10317372;28;20203;-80
2021/07/14 14:08:28;;;;;;;1.63;1.53;;;23.40;99.50;;;;;;10303416;28;20250;-80
2021/07/14 14:13:32;;;;;;;1.97;1.87;;;23.10;99.90;;;;;;10276615;28;20216;-79
2021/07/14 14:18:34;;;;;;;2.03;1.83;;;23.00;99.90;;;;;;10292339;28;20228;-80
2021/07/14 14:23:37;;;;;;;1.70;1.60;;;22.90;99.90;;;;;;10278134;28;20263;-80
2021/07/14 14:28:41;;;;;;;1.73;1.60;;;22.70;95.90;;;;;;10295837;28;20243;-81
2021/07/14 14:33:45;;;;;;;1.87;1.77;;;22.60;99.00;;;;;;10296724;28;20311;-81
2021/07/14 14:38:47;;;;;;;1.70;1.60;;;22.50;99.90;;;;;;10297500;28;20238;-81
2021/07/14 14:43:51;;;;;;;1.67;1.57;;;22.60;99.90;;;;;;10299669;28;20271;-81
2021/07/14 14:48:53;;;;;;;1.70;1.60;;;22.70;99.90;;;;;;10290664;28;20772;-80
2021/07/14 14:53:55;;;;;;;1.87;1.77;;;22.80;97.90;;;;;;10300270;28;20200;-80
2021/07/14 14:58:59;;;;;;;2.00;1.90;;;22.80;99.90;;;;;;10294196;28;20227;-82
2021/07/14 15:04:01;;;;;;;1.63;1.53;;;22.70;99.90;;;;;;10302920;28;20220;-81
2021/07/14 15:09:03;;;;;;;1.90;1.80;;;22.70;99.90;;;;;;10284775;28;20220;-80
2021/07/14 15:14:07;;;;;;;1.80;1.70;;;22.90;99.90;;;;;;10254293;29;20201;-80
2021/07/14 15:19:09;;;;;;;1.80;1.70;;;22.80;97.00;;;;;;10262713;28;20224;-79
2021/07/14 15:24:12;;;;;;;1.80;1.70;;;22.80;99.90;;;;;;10263945;28;20201;-80
2021/07/14 15:29:15;;;;;;;2.40;2.20;;;22.80;99.90;;;;;;10253551;28;20209;-80
2021/07/14 15:34:18;;;;;;;1.53;1.47;;;22.80;99.90;;;;;;10233549;29;20212;-80
2021/07/14 15:39:20;;;;;;;1.47;1.20;;;22.80;98.60;;;;;;10236992;28;20232;-80
2021/07/14 15:44:23;;;;;;;2.83;1.70;;;22.90;99.90;;;;;;10304180;28;20215;-80
2021/07/14 15:49:25;;;;;;;4.90;1.70;;;23.00;99.90;;;;;;10292497;28;20212;-81
2021/07/14 15:54:27;;;;;;;1.87;1.73;;;23.00;99.90;;;;;;10293427;28;20200;-81
2021/07/14 15:59:31;;;;;;;2.60;2.40;;;23.00;99.90;;;;;;10291560;28;20231;-81
2021/07/14 16:04:33;;;;;;;2.37;2.23;;;22.80;99.90;;;;;;10292620;28;20550;-80
2021/07/14 16:09:35;;;;;;;2.37;2.17;;;22.80;99.90;;;;;;10298365;28;20219;-84
2021/07/14 16:14:39;;;;;;;2.37;2.27;;;22.80;99.90;;;;;;10298637;28;20238;-86
2021/07/14 16:19:41;;;;;;;2.70;2.50;;;22.70;99.90;;;;;;10296724;28;20227;-82
2021/07/14 16:24:44;;;;;;;2.60;2.50;;;22.60;99.90;;;;;;10276961;28;20208;-83
2021/07/14 16:29:47;;;;;;;2.10;2.00;;;22.60;99.90;;;;;;10293102;28;20507;-82
2021/07/14 16:34:56;;;;;;;1.90;1.80;;;22.50;99.90;;;;;;10275601;28;20215;-83
2021/07/14 16:39:58;;;;;;;1.90;1.60;;;22.40;99.90;;;;;;10251360;28;20232;-85
2021/07/14 16:45:04;;;;;;;1.40;1.40;;;22.30;99.90;;;;;;10279071;28;20255;-85
2021/07/14 16:50:08;;;;;;;1.80;1.70;;;22.10;99.90;;;;;;10282023;28;20601;-82
2021/07/14 16:55:12;;;;;;;2.23;1.70;;;22.00;99.90;;;;;;10290349;28;20200;-82
2021/07/14 17:00:18;;;;;;;1.73;1.63;;;22.00;99.90;;;;;;10274408;28;20322;-83
2021/07/14 17:05:20;;;;;;;2.20;2.10;;;22.00;99.90;;;;;;10297238;28;20719;-84
2021/07/14 17:10:22;;;;;;;1.83;1.73;;;21.80;99.90;;;;;;10309794;28;20687;-82
2021/07/14 17:15:26;;;;;;;2.70;2.50;;;21.80;99.90;;;;;;10304042;28;20294;-82
2021/07/14 17:20:28;;;;;;;2.03;1.93;;;21.80;99.90;;;;;;10319331;28;20758;-82
2021/07/14 17:25:30;;;;;;;1.70;1.60;;;21.80;99.90;;;;;;10337296;28;20194;-82
2021/07/14 17:30:34;;;;;;;2.13;2.00;;;21.80;99.90;;;;;;10303001;28;20223;-83
2021/07/14 17:35:36;;;;;;;2.10;2.00;;;21.80;99.90;;;;;;10319795;28;20234;-83
2021/07/14 17:40:39;;;;;;;2.13;1.93;;;21.90;99.90;;;;;;10337741;28;20235;-80
2021/07/14 17:45:43;;;;;;;1.63;1.53;;;21.90;99.90;;;;;;10337267;28;20200;-80
2021/07/14 17:50:45;;;;;;;2.63;2.20;;;21.90;99.90;;;;;;10321765;28;20215;-80
2021/07/14 17:55:47;;;;;;;2.50;2.40;;;21.80;99.90;;;;;;10320991;28;20686;-82
2021/07/14 18:00:50;;;;;;;4.33;3.90;;;21.80;99.90;;;;;;10365899;22;20235;-81
2021/07/14 18:05:52;;;;;;;10.40;7.73;;;21.80;99.90;;;;;;10378199;28;20191;-81
2021/07/14 18:10:57;;;;;;;2.33;2.10;;;21.70;99.90;;;;;;10394729;28;20354;-81
2021/07/14 18:16:00;;;;;;;2.50;2.30;;;21.60;99.90;;;;;;10400881;28;20189;-81
2021/07/14 18:21:03;;;;;;;2.53;2.43;;;21.50;99.90;;;;;;10402094;28;20539;-82
2021/07/14 18:26:07;;;;;;;2.60;2.40;;;21.40;99.90;;;;;;10386678;28;20256;-81
2021/07/14 18:31:13;;;;;;;3.13;2.60;;;21.30;99.90;;;;;;10404622;28;20214;-81
2021/07/14 18:36:17;;;;;;;3.17;2.40;;;21.30;99.90;;;;;;10388294;28;20213;-82
2021/07/14 18:41:24;;;;;;;4.03;2.70;;;21.20;99.90;;;;;;10390646;28;20265;-82
2021/07/14 18:46:27;;;;;;;2.50;2.30;;;21.00;99.90;;;;;;10418712;28;20673;-80
2021/07/14 18:51:29;;;;;;;2.73;2.60;;;20.90;99.90;;;;;;10400513;28;20218;-81
2021/07/14 18:56:31;;;;;;;6.20;2.77;;;20.80;99.90;;;;;;10418821;28;20541;-81
2021/07/14 19:01:35;;;;;;;2.30;2.20;;;20.70;99.90;;;;;;10399118;28;20604;-81
2021/07/14 19:06:37;;;;;;;1.80;1.70;;;20.60;99.90;;;;;;10398981;28;20198;-81
2021/07/14 19:11:39;;;;;;;2.10;2.00;;;20.50;99.90;;;;;;10416194;28;20256;-80
2021/07/14 19:16:43;;;;;;;1.60;1.50;;;20.40;99.90;;;;;;10416878;28;20248;-81
2021/07/14 19:21:45;;;;;;;1.70;1.60;;;20.40;99.90;;;;;;10383679;28;20226;-79
2021/07/14 19:26:48;;;;;;;1.63;1.57;;;20.30;99.90;;;;;;10399000;28;20732;-81
2021/07/14 19:31:51;;;;;;;1.97;1.53;;;20.30;99.90;;;;;;10403396;28;20226;-82
2021/07/14 19:36:53;;;;;;;1.77;1.67;;;20.30;99.90;;;;;;10388418;28;20296;-81
2021/07/14 19:41:55;;;;;;;2.80;2.60;;;20.30;99.90;;;;;;10357700;28;20231;-81
2021/07/14 19:46:59;;;;;;;1.80;1.70;;;20.20;99.90;;;;;;10381540;28;20218;-80
2021/07/14 19:52:01;;;;;;;1.10;1.10;;;20.20;99.90;;;;;;10404595;28;20249;-81
2021/07/14 19:57:04;;;;;;;1.20;1.20;;;20.10;99.90;;;;;;10370862;28;20702;-80
2021/07/14 20:02:08;;;;;;;1.33;1.30;;;20.10;99.90;;;;;;10376439;28;20214;-81
2021/07/14 20:07:10;;;;;;;1.40;1.30;;;20.20;99.90;;;;;;10353085;28;20744;-82
2021/07/14 20:12:12;;;;;;;1.30;1.20;;;20.10;99.90;;;;;;10341623;28;20595;-81
2021/07/14 20:17:16;;;;;;;1.30;1.20;;;20.10;99.90;;;;;;10327476;28;20258;-79
2021/07/14 20:22:18;;;;;;;0.90;0.90;;;20.00;99.90;;;;;;10327707;28;20215;-79
2021/07/14 20:27:20;;;;;;;1.70;1.33;;;19.90;99.90;;;;;;10346906;28;20195;-79
2021/07/14 20:32:24;;;;;;;0.80;0.80;;;19.80;99.90;;;;;;10340055;28;20329;-79
2021/07/14 20:37:26;;;;;;;0.90;0.90;;;19.70;99.90;;;;;;10344160;28;20219;-80
2021/07/14 20:42:28;;;;;;;0.97;0.97;;;19.70;99.90;;;;;;10405063;28;20252;-80
2021/07/14 20:47:32;;;;;;;3.60;1.00;;;19.60;99.90;;;;;;10409767;28;20252;-80
2021/07/14 20:52:34;;;;;;;0.90;0.90;;;19.60;99.90;;;;;;10427461;28;20221;-79
2021/07/14 20:57:36;;;;;;;0.80;0.80;;;19.50;99.90;;;;;;10411955;28;20220;-80
2021/07/14 21:02:41;;;;;;;1.17;0.90;;;19.50;99.90;;;;;;10410937;28;20234;-80
2021/07/14 21:07:43;;;;;;;0.97;0.97;;;19.30;99.90;;;;;;10390404;28;20229;-78
2021/07/14 21:12:45;;;;;;;0.80;0.80;;;19.20;99.90;;;;;;10350148;28;20615;-78
2021/07/14 21:17:49;;;;;;;0.90;0.90;;;19.10;99.90;;;;;;10379074;28;20226;-80
2021/07/14 21:22:52;;;;;;;1.50;1.40;;;19.10;99.90;;;;;;10385716;28;20326;-79
2021/07/14 21:27:54;;;;;;;1.00;0.90;;;19.10;99.90;;;;;;10380172;28;20588;-79
2021/07/14 21:32:57;;;;;;;1.93;1.03;;;19.20;99.90;;;;;;10388516;28;20302;-79
2021/07/14 21:38:00;;;;;;;1.50;1.40;;;19.20;99.90;;;;;;10376184;28;20242;-79
2021/07/14 21:43:02;;;;;;;3.80;1.23;;;19.10;99.90;;;;;;10348154;28;20251;-78
2021/07/14 21:48:07;;;;;;;1.23;1.20;;;19.10;99.90;;;;;;10354069;28;20203;-79
2021/07/14 21:53:09;;;;;;;1.40;1.10;;;19.10;99.90;;;;;;10315443;28;20227;-79
2021/07/14 21:58:13;;;;;;;1.23;1.20;;;19.00;99.90;;;;;;10332969;28;20308;-78
2021/07/14 22:03:16;;;;;;;0.90;0.90;;;19.00;99.90;;;;;;10334119;28;20686;-79
2021/07/14 22:08:22;;;;;;;1.17;1.07;;;18.90;99.90;;;;;;10316817;28;20199;-79
2021/07/14 22:13:25;;;;;;;1.00;1.00;;;18.90;99.90;;;;;;10415761;28;20190;-78
2021/07/14 22:18:29;;;;;;;0.97;0.93;;;18.90;99.90;;;;;;10402826;28;20209;-79
2021/07/14 22:23:34;;;;;;;1.40;1.30;;;18.90;99.90;;;;;;10385325;28;20210;-79
2021/07/14 22:28:37;;;;;;;0.87;0.87;;;18.80;99.90;;;;;;10392453;28;20194;-78
2021/07/14 22:33:41;;;;;;;1.20;1.10;;;18.80;99.90;;;;;;10389084;28;20677;-78
2021/07/14 22:38:44;;;;;;;0.80;0.80;;;18.80;99.90;;;;;;10404152;28;20217;-79
2021/07/14 22:43:47;;;;;;;0.90;0.80;;;18.80;99.90;;;;;;10383133;28;20194;-78
2021/07/14 22:48:51;;;;;;;0.83;0.83;;;18.80;99.90;;;;;;10397623;28;20240;-78
2021/07/14 22:53:53;;;;;;;1.63;1.53;;;18.80;99.90;;;;;;10399774;28;20195;-78
2021/07/14 22:58:55;;;;;;;1.47;0.90;;;18.70;99.90;;;;;;10369873;28;20281;-78
2021/07/14 23:03:59;;;;;;;0.80;0.80;;;18.70;99.90;;;;;;10367398;28;20253;-78
2021/07/14 23:09:01;;;;;;;0.80;0.80;;;18.70;99.90;;;;;;10391135;28;20221;-78
2021/07/14 23:14:06;;;;;;;0.70;0.70;;;18.80;99.90;;;;;;10374275;28;20217;-78
2021/07/14 23:19:11;;;;;;;0.90;0.90;;;18.80;99.90;;;;;;10373624;28;20245;-78
2021/07/14 23:24:13;;;;;;;1.47;1.10;;;18.80;99.90;;;;;;10366876;28;20282;-77
2021/07/14 23:29:15;;;;;;;0.93;0.80;;;18.80;99.90;;;;;;10358482;28;20206;-77
2021/07/14 23:34:21;;;;;;;1.57;0.90;;;18.80;99.90;;;;;;10377317;28;20198;-78
2021/07/14 23:39:23;;;;;;;0.87;0.87;;;18.90;99.90;;;;;;10384619;28;20222;-78
2021/07/14 23:44:25;;;;;;;0.90;0.90;;;18.90;99.90;;;;;;10380261;28;20220;-78
2021/07/14 23:49:29;;;;;;;3.70;0.90;;;18.90;99.90;;;;;;10375966;28;20223;-79
2021/07/14 23:54:32;;;;;;;1.73;0.90;;;18.90;99.90;;;;;;10382800;28;20286;-78
2021/07/14 23:59:34;;;;;;;0.80;0.80;;;18.90;99.90;;;;;;10381987;28;20691;-77
